sensor_id;sensor_type;location;lat;lon;timestamp;pressure;altitude;pressure_sealevel;temperature;humidity
38939;BME280;24211;49.980;19.776;2023-05-10T00:00:04;99621.00;;;9.21;100.00
38939;BME280;24211;49.980;19.776;2023-05-10T00:02:58;99622.63;;;9.15;100.00
38939;BME280;24211;49.980;19.776;2023-05-10T00:05:26;99626.31;;;9.14;100.00
38939;BME280;24211;49.980;19.776;2023-05-10T00:07:53;99619.56;;;9.12;100.00
38939;BME280;24211;49.980;19.776;2023-05-10T00:10:21;99617.75;;;9.06;100.00
38939;BME280;24211;49.980;19.776;2023-05-10T00:12:48;99622.47;;;9.04;100.00
38939;BME280;24211;49.980;19.776;2023-05-10T00:15:16;99627.16;;;9.02;100.00
38939;BME280;24211;49.980;19.776;2023-05-10T00:17:43;99612.00;;;8.96;100.00
38939;BME280;24211;49.980;19.776;2023-05-10T00:20:11;99614.28;;;8.86;100.00
38939;BME280;24211;49.980;19.776;2023-05-10T00:22:38;99612.44;;;8.86;100.00
38939;BME280;24211;49.980;19.776;2023-05-10T00:25:07;99622.28;;;8.79;100.00
38939;BME280;24211;49.980;19.776;2023-05-10T00:27:34;99618.19;;;8.77;100.00
38939;BME280;24211;49.980;19.776;2023-05-10T00:30:02;99618.97;;;8.71;100.00
38939;BME280;24211;49.980;19.776;2023-05-10T00:32:29;99620.22;;;8.68;100.00
38939;BME280;24211;49.980;19.776;2023-05-10T00:34:58;99618.38;;;8.62;100.00
38939;BME280;24211;49.980;19.776;2023-05-10T00:37:26;99621.44;;;8.59;100.00
38939;BME280;24211;49.980;19.776;2023-05-10T00:39:54;99622.69;;;8.57;100.00
38939;BME280;24211;49.980;19.776;2023-05-10T00:42:22;99622.47;;;8.51;100.00
38939;BME280;24211;49.980;19.776;2023-05-10T00:44:52;99620.03;;;8.50;100.00
38939;BME280;24211;49.980;19.776;2023-05-10T00:47:19;99610.78;;;8.46;100.00
38939;BME280;24211;49.980;19.776;2023-05-10T00:49:47;99612.81;;;8.44;100.00
38939;BME280;24211;49.980;19.776;2023-05-10T00:52:14;99607.28;;;8.39;100.00
38939;BME280;24211;49.980;19.776;2023-05-10T00:54:42;99603.41;;;8.35;100.00
38939;BME280;24211;49.980;19.776;2023-05-10T00:57:10;99602.16;;;8.31;100.00
38939;BME280;24211;49.980;19.776;2023-05-10T00:59:38;99609.53;;;8.29;100.00
38939;BME280;24211;49.980;19.776;2023-05-10T01:02:06;99602.94;;;8.25;100.00
38939;BME280;24211;49.980;19.776;2023-05-10T01:04:35;99600.06;;;8.20;100.00
38939;BME280;24211;49.980;19.776;2023-05-10T01:07:02;99601.47;;;8.16;100.00
38939;BME280;24211;49.980;19.776;2023-05-10T01:09:30;99606.41;;;8.12;100.00
38939;BME280;24211;49.980;19.776;2023-05-10T01:11:59;99598.41;;;8.06;100.00
38939;BME280;24211;49.980;19.776;2023-05-10T01:14:29;99600.63;;;8.02;100.00
38939;BME280;24211;49.980;19.776;2023-05-10T01:16:57;99596.31;;;8.01;100.00
38939;BME280;24211;49.980;19.776;2023-05-10T01:19:28;99602.06;;;7.98;100.00
38939;BME280;24211;49.980;19.776;2023-05-10T01:28:52;99595.88;;;7.78;100.00
38939;BME280;24211;49.980;19.776;2023-05-10T01:34:25;99597.88;;;7.69;100.00
38939;BME280;24211;49.980;19.776;2023-05-10T01:37:09;99587.44;;;7.68;100.00
38939;BME280;24211;49.980;19.776;2023-05-10T01:39:55;99597.66;;;7.64;100.00
38939;BME280;24211;49.980;19.776;2023-05-10T01:42:38;99593.31;;;7.57;100.00
38939;BME280;24211;49.980;19.776;2023-05-10T01:45:22;99589.44;;;7.53;100.00
38939;BME280;24211;49.980;19.776;2023-05-10T01:48:13;99587.97;;;7.50;100.00
38939;BME280;24211;49.980;19.776;2023-05-10T01:50:45;99589.19;;;7.48;100.00
38939;BME280;24211;49.980;19.776;2023-05-10T01:53:18;99595.50;;;7.40;100.00
38939;BME280;24211;49.980;19.776;2023-05-10T01:55:51;99589.56;;;7.38;100.00
38939;BME280;24211;49.980;19.776;2023-05-10T01:58:32;99597.69;;;7.30;100.00
38939;BME280;24211;49.980;19.776;2023-05-10T02:01:05;99587.47;;;7.27;100.00
38939;BME280;24211;49.980;19.776;2023-05-10T02:03:37;99588.88;;;7.23;100.00
38939;BME280;24211;49.980;19.776;2023-05-10T02:06:07;99586.59;;;7.20;100.00
38939;BME280;24211;49.980;19.776;2023-05-10T02:08:38;99583.69;;;7.15;100.00
38939;BME280;24211;49.980;19.776;2023-05-10T02:11:07;99585.13;;;7.11;100.00
38939;BME280;24211;49.980;19.776;2023-05-10T02:13:37;99582.22;;;7.06;100.00
38939;BME280;24211;49.980;19.776;2023-05-10T02:16:07;99578.97;;;7.04;100.00
38939;BME280;24211;49.980;19.776;2023-05-10T02:18:36;99575.84;;;7.00;100.00
38939;BME280;24211;49.980;19.776;2023-05-10T02:21:04;99571.75;;;6.98;100.00
38939;BME280;24211;49.980;19.776;2023-05-10T02:23:32;99568.44;;;6.89;100.00
38939;BME280;24211;49.980;19.776;2023-05-10T02:26:02;99572.09;;;6.88;100.00
38939;BME280;24211;49.980;19.776;2023-05-10T02:28:32;99571.31;;;6.88;100.00
38939;BME280;24211;49.980;19.776;2023-05-10T02:31:01;99568.19;;;6.84;100.00
38939;BME280;24211;49.980;19.776;2023-05-10T02:33:31;99568.78;;;6.80;100.00
38939;BME280;24211;49.980;19.776;2023-05-10T02:36:00;99569.16;;;6.77;100.00
38939;BME280;24211;49.980;19.776;2023-05-10T02:38:31;99571.41;;;6.73;100.00
38939;BME280;24211;49.980;19.776;2023-05-10T02:40:59;99566.28;;;6.72;100.00
38939;BME280;24211;49.980;19.776;2023-05-10T02:43:30;99565.84;;;6.68;100.00
38939;BME280;24211;49.980;19.776;2023-05-10T02:45:59;99566.25;;;6.65;100.00
38939;BME280;24211;49.980;19.776;2023-05-10T02:48:27;99569.03;;;6.57;100.00
38939;BME280;24211;49.980;19.776;2023-05-10T02:51:04;99565.94;;;6.53;100.00
38939;BME280;24211;49.980;19.776;2023-05-10T02:53:36;99563.69;;;6.50;100.00
38939;BME280;24211;49.980;19.776;2023-05-10T02:56:15;99564.06;;;6.47;100.00
38939;BME280;24211;49.980;19.776;2023-05-10T02:58:47;99566.47;;;6.42;100.00
38939;BME280;24211;49.980;19.776;2023-05-10T03:01:14;99566.22;;;6.37;100.00
38939;BME280;24211;49.980;19.776;2023-05-10T03:03:42;99569.66;;;6.31;100.00
38939;BME280;24211;49.980;19.776;2023-05-10T03:06:10;99567.63;;;6.33;100.00
38939;BME280;24211;49.980;19.776;2023-05-10T03:08:38;99567.16;;;6.30;100.00
38939;BME280;24211;49.980;19.776;2023-05-10T03:11:43;99574.31;;;6.29;100.00
38939;BME280;24211;49.980;19.776;2023-05-10T03:20:12;99580.19;;;6.25;100.00
38939;BME280;24211;49.980;19.776;2023-05-10T03:25:55;99577.03;;;6.15;100.00
38939;BME280;24211;49.980;19.776;2023-05-10T03:28:25;99580.50;;;6.15;100.00
38939;BME280;24211;49.980;19.776;2023-05-10T03:30:56;99571.28;;;6.11;100.00
38939;BME280;24211;49.980;19.776;2023-05-10T03:33:24;99570.25;;;6.12;100.00
38939;BME280;24211;49.980;19.776;2023-05-10T03:35:53;99570.25;;;6.12;100.00
38939;BME280;24211;49.980;19.776;2023-05-10T03:38:20;99562.13;;;6.14;100.00
38939;BME280;24211;49.980;19.776;2023-05-10T03:40:47;99569.91;;;6.15;100.00
38939;BME280;24211;49.980;19.776;2023-05-10T03:43:14;99566.25;;;6.16;100.00
38939;BME280;24211;49.980;19.776;2023-05-10T03:45:42;99569.53;;;6.18;100.00
38939;BME280;24211;49.980;19.776;2023-05-10T03:48:09;99562.19;;;6.20;100.00
38939;BME280;24211;49.980;19.776;2023-05-10T03:50:37;99568.13;;;6.22;100.00
38939;BME280;24211;49.980;19.776;2023-05-10T03:53:04;99561.44;;;6.26;100.00
38939;BME280;24211;49.980;19.776;2023-05-10T03:55:32;99565.59;;;6.35;100.00
38939;BME280;24211;49.980;19.776;2023-05-10T03:58:03;99563.81;;;6.42;100.00
38939;BME280;24211;49.980;19.776;2023-05-10T04:00:30;99563.69;;;6.50;100.00
38939;BME280;24211;49.980;19.776;2023-05-10T04:02:59;99563.91;;;6.55;100.00
38939;BME280;24211;49.980;19.776;2023-05-10T04:05:28;99568.44;;;6.62;100.00
38939;BME280;24211;49.980;19.776;2023-05-10T04:07:55;99569.06;;;6.64;100.00
38939;BME280;24211;49.980;19.776;2023-05-10T04:10:23;99573.00;;;6.68;100.00
38939;BME280;24211;49.980;19.776;2023-05-10T04:12:50;99565.91;;;6.75;100.00
38939;BME280;24211;49.980;19.776;2023-05-10T04:15:18;99575.34;;;6.84;100.00
38939;BME280;24211;49.980;19.776;2023-05-10T04:17:45;99573.38;;;6.92;100.00
38939;BME280;24211;49.980;19.776;2023-05-10T04:20:13;99573.63;;;7.04;100.00
38939;BME280;24211;49.980;19.776;2023-05-10T04:22:41;99562.06;;;7.18;100.00
38939;BME280;24211;49.980;19.776;2023-05-10T04:25:08;99571.94;;;7.31;100.00
38939;BME280;24211;49.980;19.776;2023-05-10T04:27:36;99570.34;;;7.43;100.00
38939;BME280;24211;49.980;19.776;2023-05-10T04:30:05;99574.13;;;7.61;100.00
38939;BME280;24211;49.980;19.776;2023-05-10T04:32:33;99572.75;;;7.78;100.00
38939;BME280;24211;49.980;19.776;2023-05-10T04:35:00;99574.03;;;7.96;100.00
38939;BME280;24211;49.980;19.776;2023-05-10T04:37:31;99563.81;;;8.12;100.00
38939;BME280;24211;49.980;19.776;2023-05-10T04:39:59;99573.91;;;8.30;100.00
38939;BME280;24211;49.980;19.776;2023-05-10T04:42:27;99568.16;;;8.46;100.00
38939;BME280;24211;49.980;19.776;2023-05-10T04:44:54;99569.19;;;8.58;100.00
38939;BME280;24211;49.980;19.776;2023-05-10T04:47:21;99567.75;;;8.69;100.00
38939;BME280;24211;49.980;19.776;2023-05-10T04:49:49;99572.66;;;8.78;100.00
38939;BME280;24211;49.980;19.776;2023-05-10T04:52:16;99570.41;;;8.88;100.00
38939;BME280;24211;49.980;19.776;2023-05-10T04:54:45;99563.19;;;9.02;100.00
38939;BME280;24211;49.980;19.776;2023-05-10T04:57:12;99572.81;;;9.16;100.00
38939;BME280;24211;49.980;19.776;2023-05-10T04:59:39;99567.41;;;9.36;100.00
38939;BME280;24211;49.980;19.776;2023-05-10T05:02:07;99567.53;;;9.54;100.00
38939;BME280;24211;49.980;19.776;2023-05-10T05:04:34;99557.66;;;9.61;100.00
38939;BME280;24211;49.980;19.776;2023-05-10T05:07:01;99562.16;;;9.67;100.00
38939;BME280;24211;49.980;19.776;2023-05-10T05:09:29;99560.84;;;9.76;100.00
38939;BME280;24211;49.980;19.776;2023-05-10T05:11:56;99555.06;;;9.85;100.00
38939;BME280;24211;49.980;19.776;2023-05-10T05:14:23;99552.72;;;10.02;100.00
38939;BME280;24211;49.980;19.776;2023-05-10T05:16:52;99546.69;;;10.13;100.00
38939;BME280;24211;49.980;19.776;2023-05-10T05:19:20;99550.31;;;10.25;100.00
38939;BME280;24211;49.980;19.776;2023-05-10T05:21:47;99552.25;;;10.43;100.00
38939;BME280;24211;49.980;19.776;2023-05-10T05:24:15;99551.06;;;10.64;100.00
38939;BME280;24211;49.980;19.776;2023-05-10T05:26:42;99551.22;;;10.87;100.00
38939;BME280;24211;49.980;19.776;2023-05-10T05:29:09;99548.00;;;11.03;100.00
38939;BME280;24211;49.980;19.776;2023-05-10T05:31:36;99549.47;;;11.17;100.00
38939;BME280;24211;49.980;19.776;2023-05-10T05:34:04;99544.34;;;11.34;100.00
38939;BME280;24211;49.980;19.776;2023-05-10T05:36:31;99544.53;;;11.50;100.00
38939;BME280;24211;49.980;19.776;2023-05-10T05:38:58;99542.59;;;11.75;100.00
38939;BME280;24211;49.980;19.776;2023-05-10T05:41:26;99538.09;;;12.17;100.00
38939;BME280;24211;49.980;19.776;2023-05-10T05:43:53;99537.44;;;12.45;100.00
38939;BME280;24211;49.980;19.776;2023-05-10T05:46:20;99533.63;;;12.53;100.00
38939;BME280;24211;49.980;19.776;2023-05-10T05:48:48;99537.56;;;12.73;100.00
38939;BME280;24211;49.980;19.776;2023-05-10T05:51:15;99537.13;;;12.99;100.00
38939;BME280;24211;49.980;19.776;2023-05-10T05:53:42;99535.38;;;13.17;100.00
38939;BME280;24211;49.980;19.776;2023-05-10T05:56:10;99537.38;;;13.49;100.00
38939;BME280;24211;49.980;19.776;2023-05-10T05:58:37;99527.38;;;14.01;98.00
38939;BME280;24211;49.980;19.776;2023-05-10T06:01:05;99530.03;;;14.29;96.72
38939;BME280;24211;49.980;19.776;2023-05-10T06:03:32;99526.97;;;14.71;95.13
38939;BME280;24211;49.980;19.776;2023-05-10T06:06:00;99528.41;;;15.17;86.52
38939;BME280;24211;49.980;19.776;2023-05-10T06:08:27;99528.03;;;15.46;84.12
38939;BME280;24211;49.980;19.776;2023-05-10T06:10:54;99534.31;;;15.79;79.52
38939;BME280;24211;49.980;19.776;2023-05-10T06:13:21;99525.81;;;15.87;80.55
38939;BME280;24211;49.980;19.776;2023-05-10T06:15:49;99531.91;;;16.04;79.75
38939;BME280;24211;49.980;19.776;2023-05-10T06:18:16;99531.56;;;16.27;77.48
38939;BME280;24211;49.980;19.776;2023-05-10T06:20:44;99526.97;;;16.54;74.32
38939;BME280;24211;49.980;19.776;2023-05-10T06:23:11;99522.31;;;16.81;71.97
38939;BME280;24211;49.980;19.776;2023-05-10T06:25:38;99516.91;;;16.81;71.65
38939;BME280;24211;49.980;19.776;2023-05-10T06:28:05;99523.78;;;16.99;70.24
38939;BME280;24211;49.980;19.776;2023-05-10T06:30:33;99525.19;;;17.07;71.52
38939;BME280;24211;49.980;19.776;2023-05-10T06:33:00;99520.28;;;17.04;70.46
38939;BME280;24211;49.980;19.776;2023-05-10T06:35:28;99514.31;;;16.96;70.72
38939;BME280;24211;49.980;19.776;2023-05-10T06:37:55;99520.59;;;17.59;68.60
38939;BME280;24211;49.980;19.776;2023-05-10T06:40:23;99519.09;;;18.03;63.79
38939;BME280;24211;49.980;19.776;2023-05-10T06:42:50;99515.59;;;18.18;64.09
38939;BME280;24211;49.980;19.776;2023-05-10T06:45:18;99508.28;;;18.34;63.27
38939;BME280;24211;49.980;19.776;2023-05-10T06:47:46;99506.41;;;18.69;61.92
38939;BME280;24211;49.980;19.776;2023-05-10T06:50:13;99504.97;;;19.12;59.93
38939;BME280;24211;49.980;19.776;2023-05-10T06:52:40;99494.56;;;19.49;58.76
38939;BME280;24211;49.980;19.776;2023-05-10T06:55:08;99496.25;;;19.89;55.56
38939;BME280;24211;49.980;19.776;2023-05-10T06:57:36;99495.66;;;19.97;55.44
38939;BME280;24211;49.980;19.776;2023-05-10T07:00:05;99492.50;;;20.19;55.15
38939;BME280;24211;49.980;19.776;2023-05-10T07:02:33;99489.50;;;20.54;52.25
38939;BME280;24211;49.980;19.776;2023-05-10T07:05:01;99481.88;;;20.61;52.11
38939;BME280;24211;49.980;19.776;2023-05-10T07:07:29;99477.38;;;20.47;52.59
38939;BME280;24211;49.980;19.776;2023-05-10T07:09:57;99488.47;;;20.79;49.77
38939;BME280;24211;49.980;19.776;2023-05-10T07:12:25;99483.59;;;21.05;49.54
38939;BME280;24211;49.980;19.776;2023-05-10T07:14:52;99482.81;;;20.99;50.43
38939;BME280;24211;49.980;19.776;2023-05-10T07:17:20;99488.22;;;21.28;49.20
38939;BME280;24211;49.980;19.776;2023-05-10T07:19:47;99489.75;;;21.39;48.90
38939;BME280;24211;49.980;19.776;2023-05-10T07:22:17;99486.19;;;21.62;48.78
38939;BME280;24211;49.980;19.776;2023-05-10T07:24:45;99479.25;;;21.70;46.68
38939;BME280;24211;49.980;19.776;2023-05-10T07:27:12;99479.22;;;21.93;46.69
38939;BME280;24211;49.980;19.776;2023-05-10T07:29:40;99478.69;;;22.10;47.02
38939;BME280;24211;49.980;19.776;2023-05-10T07:32:07;99476.56;;;22.26;45.74
38939;BME280;24211;49.980;19.776;2023-05-10T07:34:35;99465.50;;;22.36;44.79
38939;BME280;24211;49.980;19.776;2023-05-10T07:37:02;99465.56;;;22.63;45.37
38939;BME280;24211;49.980;19.776;2023-05-10T07:39:29;99467.50;;;22.62;44.47
38939;BME280;24211;49.980;19.776;2023-05-10T07:41:57;99464.19;;;22.79;42.68
38939;BME280;24211;49.980;19.776;2023-05-10T07:44:24;99465.94;;;23.02;43.75
38939;BME280;24211;49.980;19.776;2023-05-10T07:46:51;99462.97;;;22.85;43.43
38939;BME280;24211;49.980;19.776;2023-05-10T07:49:19;99454.72;;;22.90;43.27
38939;BME280;24211;49.980;19.776;2023-05-10T07:51:46;99451.19;;;23.30;42.77
38939;BME280;24211;49.980;19.776;2023-05-10T07:54:14;99452.22;;;22.94;42.25
38939;BME280;24211;49.980;19.776;2023-05-10T07:56:41;99451.69;;;23.05;43.36
38939;BME280;24211;49.980;19.776;2023-05-10T07:59:17;99451.91;;;23.22;42.27
38939;BME280;24211;49.980;19.776;2023-05-10T08:01:45;99450.41;;;23.16;42.95
38939;BME280;24211;49.980;19.776;2023-05-10T08:04:12;99449.91;;;23.42;42.81
38939;BME280;24211;49.980;19.776;2023-05-10T08:06:40;99441.56;;;23.60;43.34
38939;BME280;24211;49.980;19.776;2023-05-10T08:09:08;99445.84;;;23.25;41.81
38939;BME280;24211;49.980;19.776;2023-05-10T08:11:36;99436.19;;;23.69;40.88
38939;BME280;24211;49.980;19.776;2023-05-10T08:14:03;99442.78;;;23.68;42.15
38939;BME280;24211;49.980;19.776;2023-05-10T08:16:31;99439.38;;;23.49;41.19
38939;BME280;24211;49.980;19.776;2023-05-10T08:18:59;99437.91;;;23.78;41.69
38939;BME280;24211;49.980;19.776;2023-05-10T08:21:27;99431.94;;;24.12;41.57
38939;BME280;24211;49.980;19.776;2023-05-10T08:23:54;99429.91;;;24.48;39.67
38939;BME280;24211;49.980;19.776;2023-05-10T08:26:21;99432.66;;;24.26;38.35
38939;BME280;24211;49.980;19.776;2023-05-10T08:28:49;99433.38;;;23.96;39.14
38939;BME280;24211;49.980;19.776;2023-05-10T08:31:16;99425.31;;;24.35;40.28
38939;BME280;24211;49.980;19.776;2023-05-10T08:33:44;99431.44;;;24.10;39.30
38939;BME280;24211;49.980;19.776;2023-05-10T08:36:11;99431.94;;;24.12;38.50
38939;BME280;24211;49.980;19.776;2023-05-10T08:38:41;99426.94;;;24.36;38.33
38939;BME280;24211;49.980;19.776;2023-05-10T08:41:09;99428.53;;;24.59;35.42
38939;BME280;24211;49.980;19.776;2023-05-10T08:43:38;99424.88;;;24.73;34.88
38939;BME280;24211;49.980;19.776;2023-05-10T08:46:08;99429.88;;;24.18;33.83
38939;BME280;24211;49.980;19.776;2023-05-10T08:48:38;99426.31;;;24.70;34.80
38939;BME280;24211;49.980;19.776;2023-05-10T08:51:07;99419.50;;;24.90;35.71
38939;BME280;24211;49.980;19.776;2023-05-10T08:53:37;99423.94;;;24.46;34.72
38939;BME280;24211;49.980;19.776;2023-05-10T08:56:05;99412.97;;;24.38;35.65
38939;BME280;24211;49.980;19.776;2023-05-10T08:58:33;99416.63;;;24.95;35.38
38939;BME280;24211;49.980;19.776;2023-05-10T09:01:01;99409.53;;;25.42;35.60
38939;BME280;24211;49.980;19.776;2023-05-10T09:03:28;99415.22;;;25.62;34.48
38939;BME280;24211;49.980;19.776;2023-05-10T09:05:56;99422.13;;;25.68;32.96
38939;BME280;24211;49.980;19.776;2023-05-10T09:08:24;99424.03;;;25.51;32.92
38939;BME280;24211;49.980;19.776;2023-05-10T09:10:55;99426.81;;;25.93;32.89
38939;BME280;24211;49.980;19.776;2023-05-10T09:13:24;99426.19;;;26.14;32.83
38939;BME280;24211;49.980;19.776;2023-05-10T09:15:52;99415.75;;;26.62;31.82
38939;BME280;24211;49.980;19.776;2023-05-10T09:18:20;99420.38;;;25.89;30.19
38939;BME280;24211;49.980;19.776;2023-05-10T09:20:49;99417.97;;;25.79;29.87
38939;BME280;24211;49.980;19.776;2023-05-10T09:23:16;99414.91;;;25.89;29.23
38939;BME280;24211;49.980;19.776;2023-05-10T09:25:43;99403.22;;;26.44;30.49
38939;BME280;24211;49.980;19.776;2023-05-10T09:28:12;99402.81;;;26.71;28.63
38939;BME280;24211;49.980;19.776;2023-05-10T09:30:39;99409.41;;;26.24;29.03
38939;BME280;24211;49.980;19.776;2023-05-10T09:33:07;99403.38;;;26.56;28.46
38939;BME280;24211;49.980;19.776;2023-05-10T09:35:35;99398.94;;;26.72;29.43
38939;BME280;24211;49.980;19.776;2023-05-10T09:38:04;99409.41;;;26.87;27.53
38939;BME280;24211;49.980;19.776;2023-05-10T09:40:32;99401.06;;;25.94;27.66
38939;BME280;24211;49.980;19.776;2023-05-10T09:43:03;99401.88;;;26.67;28.72
38939;BME280;24211;49.980;19.776;2023-05-10T09:45:34;99402.81;;;26.80;28.71
38939;BME280;24211;49.980;19.776;2023-05-10T09:48:05;99396.19;;;26.81;29.34
38939;BME280;24211;49.980;19.776;2023-05-10T09:50:33;99401.50;;;26.86;29.44
38939;BME280;24211;49.980;19.776;2023-05-10T09:53:03;99392.63;;;26.34;28.66
38939;BME280;24211;49.980;19.776;2023-05-10T09:55:44;99394.81;;;26.49;30.06
38939;BME280;24211;49.980;19.776;2023-05-10T09:58:16;99399.75;;;26.73;28.93
38939;BME280;24211;49.980;19.776;2023-05-10T10:00:46;99394.19;;;26.52;27.25
38939;BME280;24211;49.980;19.776;2023-05-10T10:03:19;99382.66;;;26.04;28.63
38939;BME280;24211;49.980;19.776;2023-05-10T10:05:48;99386.22;;;26.13;28.53
38939;BME280;24211;49.980;19.776;2023-05-10T10:08:17;99388.47;;;26.11;29.37
38939;BME280;24211;49.980;19.776;2023-05-10T10:10:46;99389.13;;;25.90;28.25
38939;BME280;24211;49.980;19.776;2023-05-10T10:13:14;99383.88;;;26.49;27.76
38939;BME280;24211;49.980;19.776;2023-05-10T10:15:42;99370.59;;;26.68;28.33
38939;BME280;24211;49.980;19.776;2023-05-10T10:18:14;99381.63;;;26.51;28.78
38939;BME280;24211;49.980;19.776;2023-05-10T10:20:43;99372.88;;;26.11;27.98
38939;BME280;24211;49.980;19.776;2023-05-10T10:23:10;99371.03;;;26.41;28.54
38939;BME280;24211;49.980;19.776;2023-05-10T10:25:38;99381.88;;;25.52;28.38
38939;BME280;24211;49.980;19.776;2023-05-10T10:28:35;99371.41;;;25.71;29.59
38939;BME280;24211;49.980;19.776;2023-05-10T10:31:39;99369.78;;;25.95;29.20
38939;BME280;24211;49.980;19.776;2023-05-10T10:34:29;99377.38;;;25.64;29.68
38939;BME280;24211;49.980;19.776;2023-05-10T10:36:57;99361.72;;;25.90;29.77
38939;BME280;24211;49.980;19.776;2023-05-10T10:39:31;99359.13;;;26.20;30.06
38939;BME280;24211;49.980;19.776;2023-05-10T10:41:59;99353.34;;;26.21;30.69
38939;BME280;24211;49.980;19.776;2023-05-10T10:44:34;99352.31;;;26.43;30.42
38939;BME280;24211;49.980;19.776;2023-05-10T10:49:43;99338.31;;;26.36;29.14
38939;BME280;24211;49.980;19.776;2023-05-10T10:52:31;99344.16;;;26.09;27.57
38939;BME280;24211;49.980;19.776;2023-05-10T10:55:11;99340.84;;;25.77;29.03
38939;BME280;24211;49.980;19.776;2023-05-10T10:57:47;99339.78;;;26.25;27.41
38939;BME280;24211;49.980;19.776;2023-05-10T11:00:29;99339.50;;;26.93;27.96
38939;BME280;24211;49.980;19.776;2023-05-10T11:03:13;99331.41;;;27.26;28.43
38939;BME280;24211;49.980;19.776;2023-05-10T11:13:47;99329.13;;;26.32;29.74
38939;BME280;24211;49.980;19.776;2023-05-10T11:19:02;99323.09;;;25.83;29.67
38939;BME280;24211;49.980;19.776;2023-05-10T11:21:31;99325.31;;;26.16;29.66
38939;BME280;24211;49.980;19.776;2023-05-10T11:24:01;99322.72;;;26.11;28.83
38939;BME280;24211;49.980;19.776;2023-05-10T11:26:35;99324.03;;;25.87;29.47
38939;BME280;24211;49.980;19.776;2023-05-10T11:29:03;99325.25;;;26.33;28.45
38939;BME280;24211;49.980;19.776;2023-05-10T11:31:32;99325.03;;;26.46;29.69
38939;BME280;24211;49.980;19.776;2023-05-10T11:34:00;99323.56;;;26.11;28.67
38939;BME280;24211;49.980;19.776;2023-05-10T11:36:38;99319.28;;;26.77;28.20
38939;BME280;24211;49.980;19.776;2023-05-10T11:39:05;99318.09;;;25.34;29.22
38939;BME280;24211;49.980;19.776;2023-05-10T11:41:33;99310.19;;;25.92;28.58
38939;BME280;24211;49.980;19.776;2023-05-10T11:44:01;99308.69;;;26.21;29.43
38939;BME280;24211;49.980;19.776;2023-05-10T11:46:28;99304.16;;;26.33;28.83
38939;BME280;24211;49.980;19.776;2023-05-10T11:49:02;99304.97;;;26.63;29.37
38939;BME280;24211;49.980;19.776;2023-05-10T11:51:35;99304.00;;;26.68;29.48
38939;BME280;24211;49.980;19.776;2023-05-10T11:54:09;99305.56;;;27.06;29.93
38939;BME280;24211;49.980;19.776;2023-05-10T11:56:40;99297.91;;;26.91;28.68
38939;BME280;24211;49.980;19.776;2023-05-10T11:59:08;99305.19;;;27.08;28.12
38939;BME280;24211;49.980;19.776;2023-05-10T12:01:36;99294.09;;;27.25;29.49
38939;BME280;24211;49.980;19.776;2023-05-10T12:04:04;99300.06;;;27.06;28.83
38939;BME280;24211;49.980;19.776;2023-05-10T12:06:37;99298.06;;;26.57;28.22
38939;BME280;24211;49.980;19.776;2023-05-10T12:09:08;99298.53;;;26.59;29.09
38939;BME280;24211;49.980;19.776;2023-05-10T12:11:38;99301.53;;;25.39;28.44
38939;BME280;24211;49.980;19.776;2023-05-10T12:14:10;99299.09;;;25.89;29.63
38939;BME280;24211;49.980;19.776;2023-05-10T12:16:38;99303.75;;;26.14;29.44
38939;BME280;24211;49.980;19.776;2023-05-10T12:19:05;99296.75;;;25.45;29.28
38939;BME280;24211;49.980;19.776;2023-05-10T12:21:32;99309.34;;;24.41;30.12
38939;BME280;24211;49.980;19.776;2023-05-10T12:24:04;99299.88;;;24.95;30.00
38939;BME280;24211;49.980;19.776;2023-05-10T12:26:35;99302.22;;;24.71;30.82
38939;BME280;24211;49.980;19.776;2023-05-10T12:29:19;99285.75;;;25.19;30.46
38939;BME280;24211;49.980;19.776;2023-05-10T12:31:55;99287.22;;;24.51;32.11
38939;BME280;24211;49.980;19.776;2023-05-10T12:37:00;99288.81;;;23.91;30.95
38939;BME280;24211;49.980;19.776;2023-05-10T12:39:42;99292.41;;;24.31;31.35
38939;BME280;24211;49.980;19.776;2023-05-10T12:42:10;99285.75;;;25.19;30.91
38939;BME280;24211;49.980;19.776;2023-05-10T12:44:39;99276.25;;;25.16;30.58
38939;BME280;24211;49.980;19.776;2023-05-10T12:47:07;99282.03;;;24.98;30.24
38939;BME280;24211;49.980;19.776;2023-05-10T12:49:34;99270.66;;;25.47;30.33
38939;BME280;24211;49.980;19.776;2023-05-10T12:52:02;99274.81;;;25.10;29.30
38939;BME280;24211;49.980;19.776;2023-05-10T12:54:29;99268.06;;;25.42;29.95
38939;BME280;24211;49.980;19.776;2023-05-10T12:56:56;99268.38;;;24.98;29.94
38939;BME280;24211;49.980;19.776;2023-05-10T12:59:24;99265.16;;;25.30;30.41
38939;BME280;24211;49.980;19.776;2023-05-10T13:01:51;99249.69;;;25.68;30.68
38939;BME280;24211;49.980;19.776;2023-05-10T13:04:18;99264.53;;;25.16;30.77
38939;BME280;24211;49.980;19.776;2023-05-10T13:06:46;99257.28;;;25.54;30.45
38939;BME280;24211;49.980;19.776;2023-05-10T13:09:13;99262.09;;;25.31;30.88
38939;BME280;24211;49.980;19.776;2023-05-10T13:11:41;99252.94;;;25.53;30.51
38939;BME280;24211;49.980;19.776;2023-05-10T13:14:09;99253.94;;;26.12;30.72
38939;BME280;24211;49.980;19.776;2023-05-10T13:16:36;99257.66;;;26.45;30.84
38939;BME280;24211;49.980;19.776;2023-05-10T13:19:03;99247.06;;;26.35;30.82
38939;BME280;24211;49.980;19.776;2023-05-10T13:21:31;99243.97;;;26.45;31.35
38939;BME280;24211;49.980;19.776;2023-05-10T13:23:58;99242.63;;;26.51;30.37
38939;BME280;24211;49.980;19.776;2023-05-10T13:26:27;99243.78;;;25.58;31.07
38939;BME280;24211;49.980;19.776;2023-05-10T13:28:55;99239.00;;;25.92;30.25
38939;BME280;24211;49.980;19.776;2023-05-10T13:31:22;99236.56;;;26.00;30.30
38939;BME280;24211;49.980;19.776;2023-05-10T13:33:50;99238.75;;;25.34;29.49
38939;BME280;24211;49.980;19.776;2023-05-10T13:36:17;99243.13;;;25.18;30.65